Time;durP1;ratioP1;P1;durP2;ratioP2;P2;SDS_P1;SDS_P2;PMS_P1;PMS_P2;Temp;Humidity;BMP_temperature;BMP_pressure;BME280_temperature;BME280_humidity;BME280_pressure;Samples;Min_cycle;Max_cycle;Signal;HPM_P1;HPM_P2
2021/10/22 00:01:15;;;;;;;22.47;21.37;;;8.90;99.90;;;;;;5050118;28;20452;-75
2021/10/22 00:03:42;;;;;;;21.77;20.77;;;8.90;99.90;;;;;;5053133;28;20506;-75
2021/10/22 00:06:08;;;;;;;21.40;20.50;;;8.90;99.90;;;;;;5058227;28;20448;-76
2021/10/22 00:08:35;;;;;;;22.17;21.17;;;8.90;99.90;;;;;;5058154;28;20450;-77
2021/10/22 00:11:02;;;;;;;21.90;20.90;;;8.90;99.90;;;;;;5056097;28;20451;-77
2021/10/22 00:13:29;;;;;;;22.03;21.00;;;8.80;99.90;;;;;;5053980;28;20471;-77
2021/10/22 00:15:56;;;;;;;21.63;20.73;;;8.70;99.90;;;;;;5053914;28;20554;-76
2021/10/22 00:18:24;;;;;;;23.10;21.60;;;8.80;99.90;;;;;;5053905;28;20449;-77
2021/10/22 00:20:51;;;;;;;22.43;21.53;;;8.60;99.90;;;;;;5053698;28;20476;-76
2021/10/22 00:23:18;;;;;;;21.33;20.43;;;8.50;99.90;;;;;;5053571;28;20475;-77
2021/10/22 00:25:45;;;;;;;21.47;20.67;;;8.40;99.90;;;;;;5053671;28;20455;-77
2021/10/22 00:28:11;;;;;;;22.30;21.27;;;8.40;99.90;;;;;;5053409;28;20479;-78
2021/10/22 00:30:38;;;;;;;21.90;20.90;;;8.40;99.90;;;;;;5053650;28;20524;-77
2021/10/22 00:33:05;;;;;;;21.70;20.60;;;8.30;99.90;;;;;;5053455;28;20479;-78
2021/10/22 00:35:33;;;;;;;22.00;21.10;;;8.30;99.90;;;;;;5053602;28;20471;-77
2021/10/22 00:38:00;;;;;;;22.20;20.70;;;8.30;99.90;;;;;;5053386;28;20507;-77
2021/10/22 00:40:27;;;;;;;22.10;20.93;;;8.20;99.90;;;;;;5053234;28;20444;-77
2021/10/22 00:42:55;;;;;;;21.43;20.53;;;8.30;99.90;;;;;;5053280;28;20487;-77
2021/10/22 00:45:23;;;;;;;21.70;20.90;;;8.30;99.90;;;;;;5053491;28;20448;-77
2021/10/22 00:47:50;;;;;;;22.30;21.30;;;8.20;99.90;;;;;;5053423;28;20825;-76
2021/10/22 00:50:17;;;;;;;22.20;21.13;;;8.20;99.90;;;;;;5053300;28;20479;-77
2021/10/22 00:52:46;;;;;;;22.23;21.23;;;8.20;99.90;;;;;;5053282;28;20444;-77
2021/10/22 00:55:14;;;;;;;23.70;22.70;;;8.10;99.90;;;;;;5053070;28;20962;-77
2021/10/22 00:57:41;;;;;;;24.33;23.03;;;8.20;99.90;;;;;;5053049;28;20550;-77
2021/10/22 01:00:09;;;;;;;22.57;21.57;;;8.20;99.90;;;;;;5052943;28;20977;-77
2021/10/22 01:02:37;;;;;;;22.07;21.10;;;8.30;99.90;;;;;;5052871;28;20950;-75
2021/10/22 01:05:08;;;;;;;23.00;21.90;;;8.30;99.90;;;;;;5053252;28;20483;-75
2021/10/22 01:07:37;;;;;;;23.13;22.13;;;8.40;99.90;;;;;;5053406;28;20440;-75
2021/10/22 01:10:06;;;;;;;23.40;22.10;;;8.50;99.90;;;;;;5053115;28;20463;-75
2021/10/22 01:12:33;;;;;;;22.10;21.10;;;8.50;99.90;;;;;;5052733;28;20448;-76
2021/10/22 01:15:01;;;;;;;22.17;21.27;;;8.50;99.90;;;;;;5052829;28;20512;-76
2021/10/22 01:17:31;;;;;;;22.67;21.43;;;8.50;99.90;;;;;;5052099;28;20482;-75
2021/10/22 01:19:58;;;;;;;22.80;21.70;;;8.50;99.90;;;;;;5052537;28;21029;-75
2021/10/22 01:22:26;;;;;;;22.87;21.80;;;8.60;99.90;;;;;;5052707;28;20471;-75
2021/10/22 01:24:53;;;;;;;22.20;21.10;;;8.60;99.90;;;;;;5052669;28;20464;-77
2021/10/22 01:27:20;;;;;;;22.77;21.50;;;8.60;99.90;;;;;;5052513;28;21051;-77
2021/10/22 01:29:46;;;;;;;22.60;21.40;;;8.70;99.90;;;;;;5052605;28;20471;-77
2021/10/22 01:32:13;;;;;;;22.10;20.93;;;8.70;99.90;;;;;;5052479;28;20448;-78
2021/10/22 01:34:40;;;;;;;23.43;22.33;;;8.70;99.90;;;;;;5052341;28;20444;-77
2021/10/22 01:37:07;;;;;;;21.70;20.70;;;8.70;99.90;;;;;;5052812;28;20930;-78
2021/10/22 01:39:35;;;;;;;21.63;20.33;;;8.70;99.90;;;;;;5052663;28;20461;-77
2021/10/22 01:42:01;;;;;;;21.43;20.17;;;8.80;99.90;;;;;;5052521;28;20461;-77
2021/10/22 01:44:28;;;;;;;22.67;21.53;;;8.70;99.90;;;;;;5052372;28;20515;-78
2021/10/22 01:46:55;;;;;;;22.43;21.30;;;8.80;99.90;;;;;;5052286;28;20450;-77
2021/10/22 01:49:22;;;;;;;20.67;19.67;;;8.80;99.90;;;;;;5052507;28;20457;-76
2021/10/22 01:51:48;;;;;;;20.57;19.37;;;8.80;99.90;;;;;;5052463;28;20444;-77
2021/10/22 01:54:15;;;;;;;21.77;20.60;;;8.70;99.90;;;;;;5052450;28;20445;-75
2021/10/22 01:56:43;;;;;;;21.57;20.27;;;8.70;99.90;;;;;;5052189;28;20558;-75
2021/10/22 01:59:10;;;;;;;20.77;19.90;;;8.60;99.90;;;;;;5052249;28;20439;-75
2021/10/22 02:01:36;;;;;;;20.70;19.70;;;8.60;99.90;;;;;;5052169;28;20448;-76
2021/10/22 02:04:03;;;;;;;20.03;19.27;;;8.50;99.90;;;;;;5052345;28;20483;-77
2021/10/22 02:06:30;;;;;;;23.00;21.27;;;8.50;99.90;;;;;;5052056;28;20455;-77
2021/10/22 02:08:57;;;;;;;21.63;20.53;;;8.50;99.90;;;;;;5052037;28;20452;-77
2021/10/22 02:11:23;;;;;;;21.50;20.50;;;8.50;99.90;;;;;;5051495;28;20463;-76
2021/10/22 02:13:51;;;;;;;22.33;21.20;;;8.40;99.90;;;;;;5051804;28;20451;-77
2021/10/22 02:16:18;;;;;;;21.63;20.37;;;8.40;99.90;;;;;;5051655;28;20969;-77
2021/10/22 02:18:45;;;;;;;23.73;22.20;;;8.40;99.90;;;;;;5051107;28;20470;-78
2021/10/22 02:21:11;;;;;;;21.00;20.10;;;8.30;99.90;;;;;;5051208;28;20499;-78
2021/10/22 02:23:38;;;;;;;21.77;20.57;;;8.20;99.90;;;;;;5051399;28;20509;-78
2021/10/22 02:26:05;;;;;;;22.80;21.60;;;8.10;99.90;;;;;;5051609;28;20452;-78
2021/10/22 02:28:31;;;;;;;22.83;21.63;;;8.00;99.90;;;;;;5051132;28;20776;-79
2021/10/22 02:30:59;;;;;;;21.70;20.20;;;7.90;99.90;;;;;;5051086;28;20453;-78
2021/10/22 02:33:26;;;;;;;21.83;20.83;;;7.80;99.90;;;;;;5051238;28;20448;-78
2021/10/22 02:35:53;;;;;;;22.80;21.50;;;7.70;99.90;;;;;;5051326;28;20455;-78
2021/10/22 02:38:20;;;;;;;22.80;21.40;;;7.70;99.90;;;;;;5051409;28;20451;-77
2021/10/22 02:40:47;;;;;;;22.00;20.97;;;7.50;99.90;;;;;;5051269;28;20471;-77
2021/10/22 02:43:14;;;;;;;24.33;22.93;;;7.50;99.90;;;;;;5050949;28;20541;-77
2021/10/22 02:45:40;;;;;;;22.40;21.20;;;7.40;99.90;;;;;;5051023;28;20474;-77
2021/10/22 02:48:09;;;;;;;22.80;21.70;;;7.40;99.90;;;;;;5051199;28;20538;-78
2021/10/22 02:50:35;;;;;;;23.37;21.90;;;7.40;99.90;;;;;;5051241;28;20448;-77
2021/10/22 02:53:02;;;;;;;23.30;22.17;;;7.30;99.90;;;;;;5050944;28;20454;-77
2021/10/22 02:55:29;;;;;;;24.67;22.50;;;7.30;99.90;;;;;;5050991;28;20456;-77
2021/10/22 02:57:56;;;;;;;22.97;21.60;;;7.30;99.90;;;;;;5050811;28;20460;-77
2021/10/22 03:00:23;;;;;;;23.80;22.70;;;7.30;99.90;;;;;;5051049;28;20440;-77
2021/10/22 03:02:50;;;;;;;23.80;22.60;;;7.30;99.90;;;;;;5051108;28;20448;-77
2021/10/22 03:05:18;;;;;;;24.37;22.83;;;7.20;99.90;;;;;;5050821;28;20491;-78
2021/10/22 03:07:44;;;;;;;22.67;21.57;;;7.20;99.90;;;;;;5050841;28;20444;-78
2021/10/22 03:10:11;;;;;;;24.40;23.30;;;7.20;99.90;;;;;;5050877;28;20462;-78
2021/10/22 03:12:38;;;;;;;27.33;25.33;;;7.10;99.90;;;;;;5050682;28;20446;-79
2021/10/22 03:15:05;;;;;;;26.27;24.43;;;7.10;99.90;;;;;;5050862;28;20466;-79
2021/10/22 03:17:32;;;;;;;25.77;24.17;;;7.00;99.90;;;;;;5051120;28;20564;-79
2021/10/22 03:19:59;;;;;;;26.80;24.80;;;7.00;99.90;;;;;;5050424;28;20486;-77
2021/10/22 03:22:27;;;;;;;26.07;24.27;;;6.80;99.90;;;;;;5050822;28;20453;-77
2021/10/22 03:24:53;;;;;;;27.10;25.60;;;6.80;99.90;;;;;;5050560;28;20498;-78
2021/10/22 03:27:22;;;;;;;27.43;25.53;;;6.80;99.90;;;;;;5050729;28;20490;-78
2021/10/22 03:29:49;;;;;;;26.03;24.50;;;6.80;99.90;;;;;;5050705;28;20546;-77
2021/10/22 03:32:16;;;;;;;24.73;23.53;;;6.60;99.90;;;;;;5050603;28;20456;-78
2021/10/22 03:34:42;;;;;;;25.60;23.87;;;6.60;99.90;;;;;;5050712;28;20474;-77
2021/10/22 03:37:09;;;;;;;26.00;24.50;;;6.50;99.90;;;;;;5050710;28;20776;-77
2021/10/22 03:39:37;;;;;;;26.23;24.70;;;6.40;99.90;;;;;;5052286;28;20505;-77
2021/10/22 03:42:04;;;;;;;27.03;25.23;;;6.40;99.90;;;;;;5054581;28;20949;-76
2021/10/22 03:44:31;;;;;;;26.47;24.43;;;6.30;99.90;;;;;;5054357;28;20498;-77
2021/10/22 03:46:58;;;;;;;27.03;25.43;;;6.30;99.90;;;;;;5054327;28;20455;-77
2021/10/22 03:49:25;;;;;;;25.90;24.37;;;6.20;99.90;;;;;;5054409;28;20831;-76
2021/10/22 03:51:51;;;;;;;25.50;24.27;;;6.30;99.90;;;;;;5054525;28;20956;-76
2021/10/22 03:54:18;;;;;;;24.43;22.93;;;6.20;99.90;;;;;;5054063;28;20464;-76
2021/10/22 03:56:46;;;;;;;25.47;23.97;;;6.20;99.90;;;;;;5053911;28;20941;-76
2021/10/22 03:59:15;;;;;;;27.20;25.50;;;6.20;99.90;;;;;;5054174;28;20455;-75
2021/10/22 04:01:42;;;;;;;26.60;24.90;;;6.10;99.90;;;;;;5053850;28;20487;-75
2021/10/22 04:04:09;;;;;;;27.80;26.07;;;6.00;99.90;;;;;;5054118;28;20860;-75
2021/10/22 04:06:36;;;;;;;26.27;24.47;;;6.00;99.90;;;;;;5054070;28;20454;-76
2021/10/22 04:09:02;;;;;;;24.83;23.53;;;5.90;99.90;;;;;;5054324;28;20484;-78
2021/10/22 04:11:29;;;;;;;25.40;23.90;;;5.90;99.90;;;;;;5053865;28;20470;-78
2021/10/22 04:13:57;;;;;;;25.33;23.67;;;5.90;99.90;;;;;;5053905;28;20452;-78
2021/10/22 04:16:24;;;;;;;26.80;24.83;;;5.80;99.90;;;;;;5054102;28;20463;-78
2021/10/22 04:18:51;;;;;;;26.97;25.57;;;5.90;99.90;;;;;;5053731;28;20448;-77
2021/10/22 04:21:18;;;;;;;27.37;25.73;;;5.90;99.90;;;;;;5056650;28;20473;-77
2021/10/22 04:23:45;;;;;;;26.80;24.40;;;5.90;99.90;;;;;;5056967;28;20536;-77
2021/10/22 04:26:12;;;;;;;27.53;26.00;;;5.90;99.90;;;;;;5056961;28;20458;-77
2021/10/22 04:28:39;;;;;;;27.63;25.97;;;5.90;99.90;;;;;;5053304;28;20830;-79
2021/10/22 04:31:07;;;;;;;26.53;24.53;;;6.00;99.90;;;;;;5053370;28;20440;-78
2021/10/22 04:33:33;;;;;;;26.40;24.80;;;6.00;99.90;;;;;;5053200;28;20932;-79
2021/10/22 04:36:00;;;;;;;26.27;24.00;;;6.00;99.90;;;;;;5053199;28;20454;-80
2021/10/22 04:41:11;;;;;;;26.10;24.40;;;5.90;99.90;;;;;;5053380;28;20418;-77
2021/10/22 04:43:38;;;;;;;26.43;24.73;;;5.90;99.90;;;;;;5053016;28;20853;-77
2021/10/22 04:46:05;;;;;;;27.67;25.37;;;5.80;99.90;;;;;;5053292;28;20479;-78
2021/10/22 04:48:33;;;;;;;28.17;26.03;;;5.80;99.90;;;;;;5053112;28;20453;-76
2021/10/22 04:50:59;;;;;;;27.17;25.67;;;5.80;99.90;;;;;;5051756;28;20448;-78
2021/10/22 04:53:26;;;;;;;27.10;24.73;;;5.70;99.90;;;;;;5052804;28;20445;-78
2021/10/22 04:55:53;;;;;;;30.10;27.60;;;5.70;99.90;;;;;;5052987;28;20439;-77
2021/10/22 04:58:21;;;;;;;28.53;26.83;;;5.60;99.90;;;;;;5053003;28;20873;-76
2021/10/22 05:00:47;;;;;;;27.10;24.80;;;5.40;99.90;;;;;;5052950;28;20455;-77
2021/10/22 05:03:14;;;;;;;29.07;27.20;;;5.40;99.90;;;;;;5052833;28;20489;-78
2021/10/22 05:05:42;;;;;;;29.63;27.60;;;5.40;99.90;;;;;;5052722;28;20591;-76
2021/10/22 05:08:09;;;;;;;28.30;26.60;;;5.40;99.90;;;;;;5052245;28;20457;-76
2021/10/22 05:10:36;;;;;;;29.60;27.37;;;5.40;99.90;;;;;;5052865;28;20462;-76
2021/10/22 05:13:03;;;;;;;29.97;27.60;;;5.50;99.90;;;;;;5052818;28;20466;-78
2021/10/22 05:15:29;;;;;;;30.90;28.27;;;5.50;99.90;;;;;;5052578;28;20464;-78
2021/10/22 05:17:56;;;;;;;29.23;26.90;;;5.40;99.90;;;;;;5052724;28;20874;-78
2021/10/22 05:20:23;;;;;;;30.03;27.40;;;5.30;99.90;;;;;;5052272;28;20474;-78
2021/10/22 05:22:51;;;;;;;30.27;27.63;;;5.20;99.90;;;;;;5052953;28;20448;-78
2021/10/22 05:25:18;;;;;;;30.87;28.33;;;5.20;99.90;;;;;;5052521;28;20496;-78
2021/10/22 05:27:45;;;;;;;29.97;27.90;;;5.20;99.90;;;;;;5052203;28;20513;-78
2021/10/22 05:30:13;;;;;;;29.07;26.73;;;5.20;99.90;;;;;;5052473;28;20455;-78
2021/10/22 05:32:42;;;;;;;28.03;26.03;;;5.30;99.90;;;;;;5052154;28;20489;-78
2021/10/22 05:35:09;;;;;;;28.83;27.13;;;5.30;99.90;;;;;;5052055;28;20480;-78
2021/10/22 05:37:36;;;;;;;29.87;27.33;;;5.30;99.90;;;;;;5052375;28;20452;-77
2021/10/22 05:40:05;;;;;;;30.40;28.23;;;5.30;99.90;;;;;;5052320;28;20452;-75
2021/10/22 05:42:32;;;;;;;31.87;29.47;;;5.30;99.90;;;;;;5052151;28;20457;-75
2021/10/22 05:44:59;;;;;;;29.90;27.83;;;5.30;99.90;;;;;;5051986;28;20486;-77
2021/10/22 05:47:26;;;;;;;32.30;29.67;;;5.30;99.90;;;;;;5051920;28;20452;-76
2021/10/22 05:49:52;;;;;;;31.30;28.43;;;5.20;99.90;;;;;;5051929;28;20516;-75
2021/10/22 05:52:19;;;;;;;31.10;28.47;;;5.20;99.90;;;;;;5052063;28;20481;-76
2021/10/22 05:54:46;;;;;;;30.30;27.60;;;5.30;99.90;;;;;;5051826;28;20445;-77
2021/10/22 05:57:14;;;;;;;30.43;28.23;;;5.30;99.90;;;;;;5051808;28;20768;-75
2021/10/22 05:59:40;;;;;;;31.57;29.40;;;5.30;99.90;;;;;;5051353;28;20966;-74
2021/10/22 06:02:07;;;;;;;33.27;30.30;;;5.30;99.90;;;;;;5051318;28;20452;-74
2021/10/22 06:04:35;;;;;;;32.20;29.27;;;5.30;99.90;;;;;;5051796;28;20509;-74
2021/10/22 06:07:02;;;;;;;30.73;28.43;;;5.30;99.90;;;;;;5051624;28;20449;-75
2021/10/22 06:09:28;;;;;;;31.53;29.30;;;5.30;99.90;;;;;;5051470;28;20515;-75
2021/10/22 06:11:56;;;;;;;31.17;28.63;;;5.30;99.90;;;;;;5051264;28;20459;-75
2021/10/22 06:14:24;;;;;;;32.70;29.60;;;5.30;99.90;;;;;;5051688;28;20681;-74
2021/10/22 06:16:50;;;;;;;31.17;28.50;;;5.30;99.90;;;;;;5051606;28;20454;-74
2021/10/22 06:19:22;;;;;;;33.47;30.50;;;5.40;99.90;;;;;;5051389;28;20458;-75
2021/10/22 06:21:55;;;;;;;32.13;29.23;;;5.40;99.90;;;;;;5051451;28;20480;-75
2021/10/22 06:24:22;;;;;;;32.27;29.83;;;5.50;99.90;;;;;;5051327;28;20831;-76
2021/10/22 06:26:50;;;;;;;33.57;31.13;;;5.60;99.90;;;;;;5050930;28;20537;-75
2021/10/22 06:29:17;;;;;;;33.80;31.30;;;5.60;99.90;;;;;;5051258;28;20508;-75
2021/10/22 06:31:45;;;;;;;35.83;32.87;;;5.60;99.90;;;;;;5050908;28;20451;-76
2021/10/22 06:34:12;;;;;;;32.87;30.00;;;5.70;99.90;;;;;;5050712;28;20454;-77
2021/10/22 06:36:38;;;;;;;35.07;31.70;;;5.90;99.90;;;;;;5050944;28;20916;-78
2021/10/22 06:39:06;;;;;;;37.90;34.73;;;6.20;99.90;;;;;;5051459;28;20494;-76
2021/10/22 06:41:34;;;;;;;39.77;35.73;;;6.40;99.90;;;;;;5051245;28;20454;-76
2021/10/22 06:44:00;;;;;;;36.30;33.20;;;6.70;99.90;;;;;;5051011;28;20455;-77
2021/10/22 06:46:27;;;;;;;38.17;34.97;;;7.00;99.90;;;;;;5051009;28;20492;-77
2021/10/22 06:48:55;;;;;;;34.33;31.43;;;7.10;99.90;;;;;;5051183;28;20443;-78
2021/10/22 06:51:22;;;;;;;33.43;31.13;;;7.20;99.90;;;;;;5050913;28;20491;-78
2021/10/22 06:53:49;;;;;;;30.03;27.83;;;7.50;99.90;;;;;;5051209;28;20444;-79
2021/10/22 06:56:16;;;;;;;31.17;28.73;;;7.60;99.90;;;;;;5050833;28;20451;-78
2021/10/22 06:58:43;;;;;;;29.23;26.97;;;7.60;99.90;;;;;;5050795;28;20505;-80
2021/10/22 07:01:10;;;;;;;28.40;25.97;;;7.70;99.90;;;;;;5050723;28;20452;-79
2021/10/22 07:03:42;;;;;;;27.07;25.27;;;7.90;99.90;;;;;;5050772;28;20456;-80
2021/10/22 07:08:56;;;;;;;25.77;23.60;;;8.40;99.90;;;;;;5048722;28;20496;-82
2021/10/22 07:11:24;;;;;;;24.17;22.33;;;8.70;99.90;;;;;;5051014;28;20821;-82
2021/10/22 07:13:53;;;;;;;22.93;21.43;;;9.10;99.90;;;;;;5050306;28;20456;-82
2021/10/22 07:16:20;;;;;;;23.43;21.70;;;9.70;99.90;;;;;;5050995;28;20961;-82
2021/10/22 07:18:49;;;;;;;26.13;24.30;;;10.10;99.90;;;;;;5050953;28;20459;-82
2021/10/22 07:21:18;;;;;;;22.80;20.90;;;10.50;99.90;;;;;;5050654;28;20537;-83
2021/10/22 07:23:46;;;;;;;21.63;19.63;;;10.90;99.90;;;;;;5050862;28;20456;-83
2021/10/22 07:26:14;;;;;;;20.73;18.93;;;11.10;99.90;;;;;;5051015;28;20488;-87
2021/10/22 07:28:41;;;;;;;18.30;17.00;;;11.20;99.90;;;;;;5051497;28;20521;-88
2021/10/22 07:31:10;;;;;;;18.57;16.93;;;11.30;99.90;;;;;;5052415;28;20455;-90
2021/10/22 07:33:38;;;;;;;22.50;15.60;;;11.50;99.90;;;;;;5052924;28;20452;-87
2021/10/22 07:36:06;;;;;;;17.53;15.90;;;11.80;99.90;;;;;;5051952;28;20440;-88
2021/10/22 07:38:34;;;;;;;17.73;16.07;;;11.90;99.90;;;;;;5052046;28;20436;-88
2021/10/22 07:41:01;;;;;;;20.53;16.40;;;12.00;99.90;;;;;;5051769;28;20506;-89
2021/10/22 07:43:28;;;;;;;17.73;15.30;;;12.50;99.90;;;;;;5051845;28;20459;-89
2021/10/22 07:45:55;;;;;;;18.40;16.40;;;12.90;99.90;;;;;;5052499;28;20541;-89
2021/10/22 07:48:22;;;;;;;16.70;15.50;;;13.50;99.90;;;;;;5051060;28;20471;-87
2021/10/22 07:50:48;;;;;;;14.63;13.47;;;13.70;99.90;;;;;;5050799;28;20448;-84
2021/10/22 07:53:15;;;;;;;15.00;13.80;;;14.20;99.90;;;;;;5050470;28;20448;-83
2021/10/22 07:55:44;;;;;;;17.20;13.00;;;14.70;99.90;;;;;;5050599;28;20452;-82
2021/10/22 07:58:12;;;;;;;13.43;12.33;;;14.70;99.90;;;;;;5050555;28;20448;-81
2021/10/22 08:00:39;;;;;;;12.97;11.90;;;15.50;99.10;;;;;;5050280;28;20526;-80
2021/10/22 08:03:05;;;;;;;13.63;12.53;;;16.00;97.00;;;;;;5050750;28;20475;-80
2021/10/22 08:05:32;;;;;;;14.23;12.93;;;16.30;95.80;;;;;;5050553;28;20486;-80
2021/10/22 08:07:59;;;;;;;13.90;13.00;;;16.50;96.40;;;;;;5050566;28;20705;-79
2021/10/22 08:10:26;;;;;;;14.67;13.30;;;16.90;96.40;;;;;;5050454;28;20470;-79
2021/10/22 08:12:54;;;;;;;14.30;12.93;;;17.60;95.20;;;;;;5050625;28;20464;-80
2021/10/22 08:15:21;;;;;;;15.60;14.37;;;18.40;92.50;;;;;;5050760;28;20450;-79
2021/10/22 08:17:47;;;;;;;13.90;13.00;;;18.80;92.40;;;;;;5050557;28;20444;-79
2021/10/22 08:20:20;;;;;;;14.80;13.40;;;18.50;91.40;;;;;;5050486;28;20830;-82
2021/10/22 08:22:47;;;;;;;12.90;11.97;;;18.30;92.60;;;;;;5050623;28;20452;-80
2021/10/22 08:25:15;;;;;;;14.50;13.40;;;18.60;90.70;;;;;;5051479;28;20506;-78
2021/10/22 08:27:44;;;;;;;14.70;13.70;;;19.00;88.70;;;;;;5053722;28;20507;-79
2021/10/22 08:30:16;;;;;;;14.57;13.27;;;19.30;86.80;;;;;;5053881;28;20458;-79
2021/10/22 08:32:47;;;;;;;14.20;13.10;;;19.90;85.20;;;;;;5054097;28;20456;-81
2021/10/22 08:35:14;;;;;;;14.30;13.13;;;19.80;82.30;;;;;;5053860;28;20443;-80
2021/10/22 08:37:40;;;;;;;14.37;13.17;;;19.50;83.30;;;;;;5053891;28;20479;-79
2021/10/22 08:40:09;;;;;;;14.73;13.27;;;19.80;81.10;;;;;;5053992;28;20447;-79
2021/10/22 08:42:36;;;;;;;13.43;12.63;;;19.70;82.10;;;;;;5053958;28;20459;-79
2021/10/22 08:45:04;;;;;;;12.00;11.23;;;20.00;81.70;;;;;;5053663;28;20900;-82
2021/10/22 08:47:34;;;;;;;13.47;12.47;;;19.00;78.10;;;;;;5053583;28;20451;-81
2021/10/22 08:50:03;;;;;;;13.50;12.37;;;18.50;78.30;;;;;;5053688;28;20452;-79
2021/10/22 08:52:31;;;;;;;14.40;13.30;;;18.10;82.00;;;;;;5053667;28;20935;-81
2021/10/22 08:54:58;;;;;;;14.33;13.13;;;18.00;82.10;;;;;;5054956;28;20711;-79
2021/10/22 08:57:25;;;;;;;13.07;12.10;;;18.40;81.20;;;;;;5056769;28;20463;-79
2021/10/22 08:59:57;;;;;;;15.07;13.87;;;18.20;83.80;;;;;;5057678;28;20444;-81
2021/10/22 09:02:26;;;;;;;13.50;12.80;;;18.00;82.10;;;;;;5055462;28;20459;-79
2021/10/22 09:04:56;;;;;;;13.60;12.60;;;18.70;80.80;;;;;;5054649;28;20506;-80
2021/10/22 09:07:40;;;;;;;14.53;13.50;;;18.90;77.40;;;;;;5053375;28;20480;-79
2021/10/22 09:10:09;;;;;;;14.93;14.03;;;19.80;77.50;;;;;;5053385;28;20965;-83
2021/10/22 09:12:44;;;;;;;13.20;12.50;;;19.60;74.90;;;;;;5052843;28;20464;-81
2021/10/22 09:15:12;;;;;;;13.10;12.23;;;20.10;75.70;;;;;;5053023;28;20452;-80
2021/10/22 09:17:41;;;;;;;14.10;13.30;;;20.40;74.10;;;;;;5053405;28;20459;-80
2021/10/22 09:20:12;;;;;;;14.70;13.33;;;20.70;73.80;;;;;;5053046;28;20508;-82
2021/10/22 09:22:40;;;;;;;13.90;13.20;;;20.40;72.80;;;;;;5053043;28;20819;-82
2021/10/22 09:25:10;;;;;;;13.67;12.70;;;20.00;74.20;;;;;;5052926;28;20460;-81
2021/10/22 09:27:49;;;;;;;14.10;13.27;;;19.60;72.90;;;;;;5043140;28;20516;-85
2021/10/22 09:30:37;;;;;;;13.40;12.43;;;19.10;73.70;;;;;;5032874;28;20506;-82
2021/10/22 09:33:06;;;;;;;14.33;13.10;;;20.10;72.80;;;;;;5032979;28;20540;-81
2021/10/22 09:35:39;;;;;;;13.30;12.40;;;20.20;71.30;;;;;;5033051;28;20441;-82
2021/10/22 09:38:18;;;;;;;12.20;11.60;;;20.60;70.70;;;;;;5032338;28;20452;-82
2021/10/22 09:40:47;;;;;;;13.43;12.50;;;20.50;69.70;;;;;;5032763;28;20448;-81
2021/10/22 09:43:18;;;;;;;13.43;12.57;;;20.30;70.10;;;;;;5032678;28;20457;-81
2021/10/22 09:45:47;;;;;;;13.80;12.80;;;20.70;67.80;;;;;;5032508;28;20495;-81
2021/10/22 09:48:34;;;;;;;14.27;13.57;;;20.20;67.40;;;;;;5032554;28;20460;-81
2021/10/22 09:51:22;;;;;;;15.13;14.13;;;20.50;70.50;;;;;;5026372;28;20461;-81
2021/10/22 09:53:49;;;;;;;14.77;13.60;;;21.40;65.90;;;;;;5032726;28;20919;-80
2021/10/22 09:56:22;;;;;;;13.07;12.20;;;21.20;63.40;;;;;;5032408;28;20457;-81
2021/10/22 09:59:00;;;;;;;14.27;13.37;;;19.90;64.60;;;;;;5032406;28;20449;-80
2021/10/22 10:01:33;;;;;;;12.50;11.60;;;20.30;63.00;;;;;;5032170;28;20449;-81
2021/10/22 10:04:00;;;;;;;13.50;12.40;;;20.50;63.00;;;;;;5032233;28;20550;-81
2021/10/22 10:06:30;;;;;;;12.40;11.90;;;20.80;61.60;;;;;;5032178;28;21080;-82
2021/10/22 10:08:57;;;;;;;13.13;12.43;;;20.30;59.70;;;;;;5032046;28;20461;-79
2021/10/22 10:11:25;;;;;;;14.87;13.80;;;20.10;62.30;;;;;;5032294;28;20457;-78
2021/10/22 10:13:52;;;;;;;13.23;12.30;;;20.60;61.70;;;;;;5032180;28;20488;-79
2021/10/22 10:16:19;;;;;;;12.80;11.93;;;20.80;60.40;;;;;;5032336;28;20507;-78
2021/10/22 10:18:50;;;;;;;12.90;12.20;;;20.90;60.10;;;;;;5032134;28;20449;-82
2021/10/22 10:21:22;;;;;;;13.03;11.93;;;20.50;59.10;;;;;;5031979;28;21005;-83
2021/10/22 10:23:52;;;;;;;13.13;12.27;;;19.70;60.10;;;;;;5032349;28;20483;-79
2021/10/22 10:26:20;;;;;;;12.83;12.00;;;18.80;60.00;;;;;;5031917;28;20540;-83
2021/10/22 10:28:49;;;;;;;12.30;11.80;;;19.00;59.30;;;;;;5050894;28;20860;-78
2021/10/22 10:31:32;;;;;;;12.40;11.90;;;19.20;59.90;;;;;;5051584;28;20868;-78
2021/10/22 10:34:00;;;;;;;12.20;11.43;;;19.70;57.80;;;;;;5051729;28;20440;-74
2021/10/22 10:36:56;;;;;;;12.43;11.73;;;19.80;55.90;;;;;;5051650;28;20448;-79
2021/10/22 10:40:14;;;;;;;12.57;11.87;;;19.80;55.60;;;;;;5048891;28;20547;-79
2021/10/22 10:42:45;;;;;;;11.70;11.17;;;18.90;55.80;;;;;;5043778;28;20472;-77
2021/10/22 10:45:42;;;;;;;12.27;11.67;;;18.80;57.60;;;;;;5051268;28;20828;-78
2021/10/22 10:48:17;;;;;;;12.40;11.60;;;19.40;56.60;;;;;;5049738;28;20463;-81
2021/10/22 10:50:49;;;;;;;12.60;11.80;;;20.10;55.70;;;;;;5051107;28;20532;-77
2021/10/22 10:53:19;;;;;;;11.73;11.13;;;20.40;54.10;;;;;;5051153;28;20450;-79
2021/10/22 10:55:51;;;;;;;12.63;12.00;;;20.20;54.00;;;;;;5051090;28;20448;-77
2021/10/22 10:58:21;;;;;;;13.23;12.57;;;20.20;53.80;;;;;;5051119;28;20510;-77
2021/10/22 11:00:50;;;;;;;10.67;10.17;;;20.40;53.00;;;;;;5051031;28;20455;-77
2021/10/22 11:03:22;;;;;;;12.80;12.03;;;20.40;52.60;;;;;;5051101;28;20546;-78
2021/10/22 11:06:15;;;;;;;12.53;11.90;;;19.70;51.80;;;;;;5051007;28;20463;-79
2021/10/22 11:08:49;;;;;;;12.57;11.80;;;19.50;50.60;;;;;;5050895;28;20447;-77
2021/10/22 11:11:33;;;;;;;12.73;12.23;;;19.70;49.70;;;;;;5051057;28;20467;-79
2021/10/22 11:14:39;;;;;;;12.80;12.10;;;19.40;50.10;;;;;;5050786;28;20460;-76
2021/10/22 11:17:07;;;;;;;12.80;12.20;;;19.00;49.70;;;;;;5051507;28;20450;-76
2021/10/22 11:19:36;;;;;;;12.33;11.63;;;19.80;49.70;;;;;;5051040;28;20444;-78
2021/10/22 11:22:08;;;;;;;13.00;12.30;;;20.60;48.10;;;;;;5051097;28;20473;-74
2021/10/22 11:24:37;;;;;;;12.40;11.40;;;20.50;48.40;;;;;;5051241;28;20448;-79
2021/10/22 11:27:07;;;;;;;12.50;11.80;;;19.60;47.70;;;;;;5050688;28;20491;-79
2021/10/22 11:29:36;;;;;;;12.83;12.10;;;19.90;49.10;;;;;;5050798;28;20460;-79
2021/10/22 11:32:04;;;;;;;11.70;11.10;;;20.00;48.10;;;;;;5050862;28;20464;-79
2021/10/22 11:34:35;;;;;;;11.83;11.33;;;19.40;47.70;;;;;;5050677;28;20455;-78
2021/10/22 11:37:05;;;;;;;11.83;11.33;;;19.40;47.80;;;;;;5050835;28;21159;-76
2021/10/22 11:39:35;;;;;;;13.03;12.10;;;20.10;46.70;;;;;;5050860;28;20456;-78
2021/10/22 11:42:12;;;;;;;12.10;11.40;;;20.20;46.80;;;;;;5050597;28;20452;-78
2021/10/22 11:44:40;;;;;;;13.00;12.30;;;20.60;45.80;;;;;;5050590;28;20463;-78
2021/10/22 11:47:09;;;;;;;11.97;11.47;;;20.70;45.60;;;;;;5050579;28;20483;-79
2021/10/22 11:49:38;;;;;;;12.27;11.67;;;20.70;44.30;;;;;;5050630;28;21022;-80
2021/10/22 11:52:07;;;;;;;12.50;11.90;;;20.50;44.00;;;;;;5050730;28;20938;-78
2021/10/22 11:54:39;;;;;;;12.07;11.57;;;20.40;43.30;;;;;;5050718;28;20834;-79
2021/10/22 11:57:10;;;;;;;12.70;12.00;;;20.50;42.80;;;;;;5050603;28;20440;-79
2021/10/22 11:59:44;;;;;;;13.20;12.60;;;20.70;42.70;;;;;;5050487;28;20458;-78
2021/10/22 12:02:12;;;;;;;13.03;12.43;;;20.80;42.70;;;;;;5054209;28;20459;-79
2021/10/22 12:04:39;;;;;;;12.40;11.70;;;20.50;42.40;;;;;;5053997;28;20462;-79
2021/10/22 12:07:07;;;;;;;12.70;11.80;;;19.80;43.10;;;;;;5053938;28;20537;-79
2021/10/22 12:09:36;;;;;;;12.23;11.63;;;20.00;43.70;;;;;;5054228;28;20451;-78
2021/10/22 12:12:05;;;;;;;11.30;10.80;;;19.20;44.80;;;;;;5054252;28;20451;-79
2021/10/22 12:14:38;;;;;;;11.73;11.23;;;18.90;46.20;;;;;;5054106;28;20538;-79
2021/10/22 12:17:06;;;;;;;12.37;11.47;;;18.60;46.80;;;;;;5054273;28;20466;-79
2021/10/22 12:19:33;;;;;;;12.40;11.80;;;18.20;47.30;;;;;;5054005;28;20444;-79
2021/10/22 12:22:00;;;;;;;11.93;11.33;;;18.30;47.40;;;;;;5054090;28;20501;-79
2021/10/22 12:24:45;;;;;;;12.00;11.50;;;18.60;48.60;;;;;;5054012;28;20554;-79
2021/10/22 12:27:13;;;;;;;11.90;11.40;;;18.90;47.30;;;;;;5053601;28;20494;-79
2021/10/22 12:29:58;;;;;;;11.80;11.13;;;18.90;48.30;;;;;;5053628;28;20452;-79
2021/10/22 12:32:37;;;;;;;11.50;11.00;;;19.20;47.50;;;;;;5051806;28;21538;-80
2021/10/22 12:35:07;;;;;;;12.23;11.43;;;18.90;49.00;;;;;;5053730;28;20821;-79
2021/10/22 12:37:36;;;;;;;11.73;11.20;;;19.10;46.50;;;;;;5053561;28;20448;-80
2021/10/22 12:40:15;;;;;;;12.53;12.03;;;19.60;47.30;;;;;;5053712;28;20828;-79
2021/10/22 12:42:42;;;;;;;12.60;12.10;;;19.40;46.40;;;;;;5053559;28;20454;-78
2021/10/22 12:45:17;;;;;;;11.50;10.90;;;19.20;46.50;;;;;;5053471;28;20448;-77
2021/10/22 12:47:45;;;;;;;11.60;11.10;;;19.00;45.80;;;;;;5053575;28;20553;-77